Time;durP1;ratioP1;P1;durP2;ratioP2;P2;SDS_P1;SDS_P2;PMS_P1;PMS_P2;Temp;Humidity;BMP_temperature;BMP_pressure;BME280_temperature;BME280_humidity;BME280_pressure;Samples;Min_cycle;Max_cycle;Signal;HPM_P1;HPM_P2
2023/01/23 00:00:47;;;;;;;18.90;12.90;;;;;;;-3.05;100.00;93784.56;2083903;28;20052;-83
2023/01/23 00:01:49;;;;;;;19.70;12.75;;;;;;;-3.18;100.00;93790.75;2097511;28;20032;-84
2023/01/23 00:02:50;;;;;;;20.90;12.77;;;;;;;-3.00;100.00;93787.00;2091227;28;20112;-82
2023/01/23 00:03:52;;;;;;;18.65;12.10;;;;;;;-2.95;100.00;93778.22;2088237;28;20032;-83
2023/01/23 00:04:53;;;;;;;20.92;12.85;;;;;;;-3.18;100.00;93781.06;2089456;28;20032;-83
2023/01/23 00:06:03;;;;;;;17.90;12.10;;;;;;;-3.25;100.00;93783.38;2089830;28;20021;-83
2023/01/23 00:07:04;;;;;;;19.63;12.38;;;;;;;-3.27;100.00;93784.78;2082956;28;20017;-84
2023/01/23 00:08:05;;;;;;;18.13;12.20;;;;;;;-3.34;100.00;93780.78;2085548;28;20028;-84
2023/01/23 00:09:07;;;;;;;22.10;12.77;;;;;;;-3.22;100.00;93779.38;2102258;28;20121;-84
2023/01/23 00:10:09;;;;;;;19.13;12.68;;;;;;;-3.18;100.00;93777.69;2097834;28;20029;-83
2023/01/23 00:11:13;;;;;;;18.92;12.55;;;;;;;-3.27;100.00;93777.72;2089970;28;20032;-84
2023/01/23 00:12:13;;;;;;;19.67;12.38;;;;;;;-3.35;100.00;93778.50;2090854;28;20025;-84
2023/01/23 00:13:16;;;;;;;19.92;12.60;;;;;;;-3.40;100.00;93789.88;2092092;28;20012;-81
2023/01/23 00:14:17;;;;;;;18.27;12.15;;;;;;;-3.51;100.00;93780.06;2087633;28;20025;-85
2023/01/23 00:15:18;;;;;;;20.95;12.73;;;;;;;-3.27;100.00;93782.16;2089741;28;20531;-80
2023/01/23 00:16:22;;;;;;;19.55;12.27;;;;;;;-3.32;100.00;93777.88;2080867;28;20025;-83
2023/01/23 00:17:26;;;;;;;21.55;11.73;;;;;;;-3.29;100.00;93782.50;2082044;28;20447;-83
2023/01/23 00:18:26;;;;;;;16.13;11.23;;;;;;;-3.37;100.00;93778.81;2088096;28;20072;-83
2023/01/23 00:19:27;;;;;;;17.40;11.45;;;;;;;-3.48;100.00;93782.06;2087333;28;20022;-83
2023/01/23 00:20:28;;;;;;;16.80;11.57;;;;;;;-3.25;100.00;93772.16;2087428;28;20021;-83
2023/01/23 00:21:30;;;;;;;17.23;11.32;;;;;;;-3.32;100.00;93772.66;2093547;28;20017;-83
2023/01/23 00:22:31;;;;;;;17.05;11.15;;;;;;;-3.36;100.00;93775.13;2086939;28;21613;-82
2023/01/23 00:23:33;;;;;;;14.93;10.75;;;;;;;-3.40;100.00;93771.59;2088771;28;20059;-84
2023/01/23 00:24:34;;;;;;;17.30;11.85;;;;;;;-3.40;100.00;93776.06;2083766;28;20021;-82
2023/01/23 00:25:35;;;;;;;17.20;10.43;;;;;;;-3.34;100.00;93772.94;2080920;28;20025;-83
2023/01/23 00:26:36;;;;;;;14.93;10.75;;;;;;;-3.21;100.00;93775.69;2088330;28;20033;-82
2023/01/23 00:27:37;;;;;;;16.08;10.73;;;;;;;-3.37;100.00;93780.66;2087837;28;20044;-84
2023/01/23 00:28:38;;;;;;;13.05;9.32;;;;;;;-3.39;100.00;93774.97;2083330;28;20029;-83
2023/01/23 00:29:39;;;;;;;13.25;9.35;;;;;;;-3.52;100.00;93781.91;2097115;28;20028;-82
2023/01/23 00:30:40;;;;;;;14.98;9.55;;;;;;;-3.53;100.00;93779.63;2087848;28;20480;-83
2023/01/23 00:31:41;;;;;;;14.88;10.50;;;;;;;-3.59;100.00;93777.16;2081579;28;20071;-83
2023/01/23 00:32:42;;;;;;;15.65;10.20;;;;;;;-3.55;100.00;93777.31;2100378;28;20090;-85
2023/01/23 00:33:45;;;;;;;14.27;9.65;;;;;;;-3.52;100.00;93778.53;2101117;28;20591;-83
2023/01/23 00:34:46;;;;;;;15.02;9.45;;;;;;;-3.37;100.00;93775.44;2092699;28;20051;-82
2023/01/23 00:35:48;;;;;;;16.05;10.55;;;;;;;-3.46;100.00;93766.84;2080255;28;20033;-85
2023/01/23 00:36:49;;;;;;;13.98;10.43;;;;;;;-3.35;100.00;93773.25;2094511;28;20031;-84
2023/01/23 00:37:52;;;;;;;15.25;10.27;;;;;;;-3.43;100.00;93774.06;2108805;28;20027;-84
2023/01/23 00:38:53;;;;;;;14.57;10.73;;;;;;;-3.48;100.00;93779.44;2089692;28;20052;-82
2023/01/23 00:39:53;;;;;;;16.48;10.95;;;;;;;-3.55;100.00;93775.47;2073923;28;20029;-84
2023/01/23 00:40:55;;;;;;;15.95;11.43;;;;;;;-3.59;100.00;93782.41;2081385;28;20021;-81
2023/01/23 00:41:56;;;;;;;18.42;11.50;;;;;;;-3.57;100.00;93779.47;2081456;28;20025;-83
2023/01/23 00:42:57;;;;;;;16.80;11.45;;;;;;;-3.63;100.00;93778.09;2086507;28;20066;-82
2023/01/23 00:43:58;;;;;;;16.52;11.02;;;;;;;-3.58;100.00;93783.91;2100975;28;20432;-82
2023/01/23 00:45:01;;;;;;;17.13;11.40;;;;;;;-3.64;100.00;93785.16;2089582;28;20017;-83
2023/01/23 00:46:02;;;;;;;17.60;11.38;;;;;;;-3.65;100.00;93785.47;2087460;28;20025;-83
2023/01/23 00:47:05;;;;;;;16.38;11.25;;;;;;;-3.62;100.00;93783.00;2089694;28;20020;-84
2023/01/23 00:48:06;;;;;;;16.70;11.40;;;;;;;-3.65;100.00;93788.06;2098528;28;20028;-82
2023/01/23 00:49:07;;;;;;;16.02;11.65;;;;;;;-3.62;100.00;93782.25;2097823;28;20023;-83
2023/01/23 00:50:09;;;;;;;15.98;10.68;;;;;;;-3.63;100.00;93786.69;2077609;28;20043;-84
2023/01/23 00:51:10;;;;;;;15.93;11.13;;;;;;;-3.67;100.00;93780.56;2079177;28;20021;-83
2023/01/23 00:52:11;;;;;;;18.65;12.00;;;;;;;-3.71;100.00;93778.88;2081178;28;20024;-83
2023/01/23 00:53:12;;;;;;;16.40;11.00;;;;;;;-3.70;100.00;93788.25;2081535;28;20013;-82
2023/01/23 00:54:13;;;;;;;17.45;11.05;;;;;;;-3.70;100.00;93781.16;2077750;28;20033;-83
2023/01/23 00:55:14;;;;;;;18.25;11.35;;;;;;;-3.79;100.00;93785.63;2089380;28;20020;-84
2023/01/23 00:56:16;;;;;;;18.23;11.80;;;;;;;-3.78;100.00;93783.78;2086688;28;20098;-82
2023/01/23 00:57:17;;;;;;;18.55;11.98;;;;;;;-3.83;100.00;93795.16;2086050;28;20030;-84
2023/01/23 00:58:18;;;;;;;18.25;12.20;;;;;;;-3.83;100.00;93785.47;2090061;28;20440;-83
2023/01/23 00:59:19;;;;;;;20.27;12.10;;;;;;;-3.83;100.00;93789.94;2094224;28;20017;-82
2023/01/23 01:00:20;;;;;;;18.95;12.10;;;;;;;-3.81;100.00;93787.81;2087152;28;20021;-83
2023/01/23 01:01:21;;;;;;;18.75;11.60;;;;;;;-3.88;100.00;93795.31;2097764;28;20763;-84
2023/01/23 01:02:22;;;;;;;18.48;11.40;;;;;;;-3.90;100.00;93790.41;2087565;28;20493;-84
2023/01/23 01:03:24;;;;;;;16.33;11.05;;;;;;;-3.90;100.00;93789.66;2081229;28;20022;-84
2023/01/23 01:04:25;;;;;;;15.75;10.75;;;;;;;-3.86;100.00;93788.72;2075017;28;20029;-83
2023/01/23 01:05:26;;;;;;;17.55;10.75;;;;;;;-3.71;100.00;93786.72;2073375;28;20022;-83
2023/01/23 01:06:28;;;;;;;16.33;10.63;;;;;;;-3.62;100.00;93790.84;2080089;28;20025;-83
2023/01/23 01:07:29;;;;;;;15.57;9.70;;;;;;;-3.60;100.00;93793.13;2090000;28;20470;-82
2023/01/23 01:08:30;;;;;;;14.68;10.70;;;;;;;-3.68;100.00;93792.09;2089669;28;20016;-85
2023/01/23 01:09:31;;;;;;;13.65;9.77;;;;;;;-3.74;100.00;93788.09;2079401;28;20040;-82
2023/01/23 01:10:33;;;;;;;17.25;11.13;;;;;;;-3.80;100.00;93797.16;2086385;28;20040;-84
2023/01/23 01:11:33;;;;;;;16.73;11.13;;;;;;;-3.79;100.00;93796.09;2091648;28;20050;-82
2023/01/23 01:12:34;;;;;;;15.65;10.65;;;;;;;-3.78;100.00;93792.38;2095281;28;20469;-82
2023/01/23 01:13:35;;;;;;;17.73;10.95;;;;;;;-3.86;100.00;93787.97;2090068;28;20589;-83
2023/01/23 01:14:36;;;;;;;15.95;10.77;;;;;;;-3.79;100.00;93793.47;2102598;28;20016;-84
2023/01/23 01:15:38;;;;;;;16.65;10.23;;;;;;;-3.84;100.00;93789.16;2093838;28;20020;-83
2023/01/23 01:16:43;;;;;;;14.48;9.98;;;;;;;-3.87;100.00;93794.22;2091516;28;20116;-82
2023/01/23 01:17:44;;;;;;;15.82;10.95;;;;;;;-3.90;100.00;93787.81;2092501;28;20082;-82
2023/01/23 01:18:45;;;;;;;15.40;10.38;;;;;;;-3.79;100.00;93785.63;2082903;28;20631;-83
2023/01/23 01:19:47;;;;;;;16.02;10.90;;;;;;;-3.77;100.00;93783.50;2097217;28;20473;-83
2023/01/23 01:20:48;;;;;;;16.67;10.40;;;;;;;-3.73;100.00;93787.03;2089037;28;20055;-82
2023/01/23 01:21:49;;;;;;;14.85;9.73;;;;;;;-3.81;100.00;93782.56;2085118;28;20465;-84
2023/01/23 01:22:51;;;;;;;15.40;10.05;;;;;;;-3.79;100.00;93783.03;2091626;28;20021;-84
2023/01/23 01:23:52;;;;;;;16.30;10.15;;;;;;;-3.82;100.00;93791.47;2088911;28;20474;-82
2023/01/23 01:24:53;;;;;;;14.50;10.10;;;;;;;-3.88;100.00;93793.47;2081847;28;20025;-81
2023/01/23 01:25:58;;;;;;;15.50;10.00;;;;;;;-3.88;100.00;93796.09;2089791;28;20035;-83
2023/01/23 01:27:00;;;;;;;13.75;9.50;;;;;;;-3.89;100.00;93788.56;2085177;28;20030;-80
2023/01/23 01:28:01;;;;;;;15.95;10.55;;;;;;;-3.91;100.00;93796.69;2078367;28;20441;-81
2023/01/23 01:29:03;;;;;;;17.17;10.50;;;;;;;-3.93;100.00;93800.69;2096256;28;20013;-79
2023/01/23 01:30:04;;;;;;;16.15;10.63;;;;;;;-3.90;100.00;93794.88;2082613;28;20017;-81
2023/01/23 01:31:09;;;;;;;18.45;10.40;;;;;;;-3.92;100.00;93800.38;2090896;28;20017;-81
2023/01/23 01:32:10;;;;;;;14.40;9.95;;;;;;;-3.90;100.00;93800.09;2094764;28;20016;-81
2023/01/23 01:33:11;;;;;;;15.13;10.02;;;;;;;-3.95;100.00;93800.22;2081205;28;20026;-81
2023/01/23 01:34:12;;;;;;;15.48;10.10;;;;;;;-3.90;100.00;93803.47;2078722;28;20116;-82
2023/01/23 01:35:13;;;;;;;15.65;9.90;;;;;;;-3.78;100.00;93805.44;2089568;28;20013;-83
2023/01/23 01:36:18;;;;;;;17.40;10.45;;;;;;;-3.60;100.00;93800.97;2097626;28;20581;-82
2023/01/23 01:37:21;;;;;;;14.50;10.10;;;;;;;-3.65;100.00;93807.13;2082744;28;20021;-81
2023/01/23 01:38:22;;;;;;;15.10;9.85;;;;;;;-3.65;100.00;93801.91;2082175;28;20440;-83
2023/01/23 01:39:23;;;;;;;13.73;9.57;;;;;;;-3.81;100.00;93806.84;2081861;28;20484;-82
2023/01/23 01:40:30;;;;;;;16.50;10.45;;;;;;;-3.72;100.00;93804.22;2098029;28;20031;-81
2023/01/23 01:41:31;;;;;;;16.25;11.02;;;;;;;-3.74;100.00;93803.75;2090329;28;20059;-82
2023/01/23 01:42:43;;;;;;;15.30;10.65;;;;;;;-3.69;100.00;93803.59;2100881;28;20055;-82
2023/01/23 01:43:45;;;;;;;14.30;9.63;;;;;;;-3.75;100.00;93804.84;2086424;28;20479;-83
2023/01/23 01:44:52;;;;;;;16.80;10.68;;;;;;;-3.89;100.00;93805.00;2089767;28;20035;-85
2023/01/23 01:46:08;;;;;;;15.80;10.68;;;;;;;-3.83;100.00;93808.97;2089328;28;20032;-83
2023/01/23 01:47:14;;;;;;;16.83;9.63;;;;;;;-3.81;100.00;93809.47;2093428;28;20044;-83
2023/01/23 01:48:17;;;;;;;14.75;9.65;;;;;;;-3.73;100.00;93807.94;2094976;28;20020;-84
2023/01/23 01:49:30;;;;;;;14.13;9.93;;;;;;;-3.70;100.00;93809.13;2099877;28;20016;-85
2023/01/23 01:50:31;;;;;;;14.38;9.52;;;;;;;-3.64;100.00;93800.84;2091557;28;20062;-82
2023/01/23 01:52:10;;;;;;;14.93;10.52;;;;;;;-3.68;100.00;93810.38;2074937;28;20564;-81
2023/01/23 01:53:11;;;;;;;13.60;9.68;;;;;;;-3.61;100.00;93807.28;2091452;28;20040;-84
2023/01/23 01:54:27;;;;;;;15.55;10.02;;;;;;;-3.68;100.00;93812.97;2087636;28;20512;-84
2023/01/23 01:55:29;;;;;;;13.88;9.50;;;;;;;-3.70;100.00;93809.91;2095951;28;20139;-81
2023/01/23 01:56:59;;;;;;;14.32;10.10;;;;;;;-3.76;100.00;93810.38;2095296;28;20103;-83
2023/01/23 01:58:00;;;;;;;14.63;9.68;;;;;;;-3.85;100.00;93813.75;2090347;28;20029;-81
2023/01/23 01:59:02;;;;;;;13.75;9.75;;;;;;;-3.75;100.00;93811.91;2086577;28;20021;-81
2023/01/23 02:00:06;;;;;;;15.13;10.52;;;;;;;-3.78;100.00;93809.91;2081056;28;20018;-82
2023/01/23 02:01:07;;;;;;;14.07;10.15;;;;;;;-3.67;100.00;93805.91;2076676;28;20132;-83
2023/01/23 02:02:17;;;;;;;15.13;10.60;;;;;;;-3.71;100.00;93815.44;2086917;28;20025;-80
2023/01/23 02:03:18;;;;;;;;;;;;;;;-3.74;100.00;93813.44;2083970;28;20025;-81
2023/01/23 02:04:19;;;;;;;15.63;9.48;;;;;;;-3.75;100.00;93812.66;2080851;28;19913;-83
2023/01/23 02:05:28;;;;;;;14.02;9.90;;;;;;;-3.73;100.00;93814.97;2089334;28;20043;-81
2023/01/23 02:06:30;;;;;;;15.63;10.18;;;;;;;-3.62;100.00;93811.75;2103468;28;20042;-83
2023/01/23 02:07:37;;;;;;;13.98;9.90;;;;;;;-3.69;100.00;93810.66;2092629;28;20031;-81
2023/01/23 02:08:44;;;;;;;13.52;9.77;;;;;;;-3.49;100.00;93815.25;2081926;28;20116;-84
2023/01/23 02:09:47;;;;;;;13.05;9.73;;;;;;;-3.55;100.00;93817.28;2098625;28;20119;-84
2023/01/23 02:10:48;;;;;;;13.88;9.80;;;;;;;-3.63;100.00;93820.66;2101287;28;20085;-84
2023/01/23 02:11:49;;;;;;;16.27;10.32;;;;;;;-3.65;100.00;93822.03;2081808;28;20925;-83
2023/01/23 02:12:51;;;;;;;15.25;9.75;;;;;;;-3.67;100.00;93822.34;2080746;28;20098;-83
2023/01/23 02:13:55;;;;;;;14.48;10.38;;;;;;;-3.49;100.00;93815.25;2080671;28;20032;-83
2023/01/23 02:14:56;;;;;;;15.00;10.45;;;;;;;-3.59;100.00;93808.53;2078395;28;20021;-83
2023/01/23 02:16:01;;;;;;;14.27;9.85;;;;;;;-3.68;100.00;93815.59;2080974;28;20025;-83
2023/01/23 02:28:48;;;;;;;18.75;13.07;;;;;;;-3.68;100.00;93807.75;2145890;27;20571;-84
2023/01/23 02:29:50;;;;;;;16.98;12.27;;;;;;;-3.70;100.00;93807.28;2121030;28;20162;-84
2023/01/23 02:30:51;;;;;;;14.38;11.30;;;;;;;-3.75;100.00;93804.06;2104507;28;20115;-83
2023/01/23 02:31:54;;;;;;;15.10;11.25;;;;;;;-3.70;100.00;93803.91;2101533;28;20443;-83
2023/01/23 02:33:18;;;;;;;14.55;10.10;;;;;;;-3.67;100.00;93806.69;2105044;28;20512;-83
2023/01/23 02:34:21;;;;;;;15.50;11.13;;;;;;;-3.56;100.00;93799.28;2076920;28;20040;-83
2023/01/23 02:35:26;;;;;;;15.27;11.13;;;;;;;-3.69;100.00;93800.97;2116530;27;20035;-82
2023/01/23 02:36:30;;;;;;;15.25;10.43;;;;;;;-3.60;100.00;93803.59;2113443;28;20024;-83
2023/01/23 02:37:33;;;;;;;16.17;10.82;;;;;;;-3.56;100.00;93801.88;2113103;28;20024;-82
2023/01/23 02:38:45;;;;;;;14.70;10.52;;;;;;;-3.52;100.00;93799.44;2112665;28;20478;-84
2023/01/23 02:39:46;;;;;;;14.73;10.48;;;;;;;-3.57;100.00;93805.59;2107629;28;20034;-81
2023/01/23 02:40:47;;;;;;;14.52;10.70;;;;;;;-3.64;100.00;93800.84;2102024;28;20028;-83
2023/01/23 02:41:50;;;;;;;16.83;11.15;;;;;;;-3.65;100.00;93804.50;2112931;27;20082;-83
2023/01/23 02:42:51;;;;;;;16.17;10.73;;;;;;;-3.35;100.00;93802.00;2121398;27;20085;-81
2023/01/23 02:43:55;;;;;;;15.35;10.90;;;;;;;-3.36;100.00;93803.88;2112916;28;20034;-82
2023/01/23 02:44:56;;;;;;;18.08;11.75;;;;;;;-3.40;100.00;93804.78;2104787;28;20050;-83
2023/01/23 02:46:01;;;;;;;17.15;12.18;;;;;;;-3.56;100.00;93801.88;2121230;27;20496;-82
2023/01/23 02:47:06;;;;;;;15.50;11.00;;;;;;;-3.54;100.00;93804.97;2113421;28;20023;-81
2023/01/23 02:48:07;;;;;;;16.40;11.18;;;;;;;-3.54;100.00;93802.38;2121977;27;20023;-83
2023/01/23 02:49:09;;;;;;;18.13;11.77;;;;;;;-3.64;100.00;93806.06;2112566;28;20157;-84
2023/01/23 02:50:10;;;;;;;15.73;10.75;;;;;;;-3.38;100.00;93803.41;2102455;28;20047;-82
2023/01/23 02:51:11;;;;;;;15.32;11.20;;;;;;;-3.51;100.00;93800.97;2096031;28;20021;-84
2023/01/23 02:52:12;;;;;;;16.63;12.25;;;;;;;-3.54;100.00;93802.38;2095749;28;20032;-83
2023/01/23 02:53:13;;;;;;;18.60;12.82;;;;;;;-3.47;100.00;93799.25;2095880;28;20020;-84
2023/01/23 02:54:14;;;;;;;17.48;11.80;;;;;;;-3.48;100.00;93795.13;2098536;28;20028;-82
2023/01/23 02:55:32;;;;;;;16.67;11.15;;;;;;;-3.52;100.00;93807.28;2104275;28;20052;-83
2023/01/23 02:56:33;;;;;;;18.40;12.20;;;;;;;-3.58;100.00;93804.06;2112481;28;20019;-83
2023/01/23 02:57:34;;;;;;;16.77;11.63;;;;;;;-3.51;100.00;93798.34;2093631;28;20045;-83
2023/01/23 03:01:14;;;;;;;17.75;11.13;;;;;;;-3.52;100.00;93794.22;2113664;28;20058;-84
2023/01/23 03:02:16;;;;;;;16.90;10.77;;;;;;;-3.42;100.00;93809.56;2103720;28;20111;-82
2023/01/23 03:03:17;;;;;;;17.88;11.77;;;;;;;-3.50;100.00;93803.28;2112477;28;20027;-82
2023/01/23 03:04:18;;;;;;;17.98;12.02;;;;;;;-3.50;100.00;93803.28;2112188;28;20023;-83
2023/01/23 03:05:19;;;;;;;18.98;12.05;;;;;;;-3.49;100.00;93799.59;2095398;28;20497;-82
2023/01/23 03:06:20;;;;;;;20.05;12.35;;;;;;;-3.41;100.00;93803.28;2101148;28;20061;-84
2023/01/23 03:07:21;;;;;;;19.45;12.88;;;;;;;-3.32;100.00;93806.63;2095543;28;20021;-83
2023/01/23 03:08:22;;;;;;;16.75;11.65;;;;;;;-3.44;100.00;93803.88;2096502;28;20043;-83
2023/01/23 03:09:23;;;;;;;16.90;11.57;;;;;;;-3.42;100.00;93810.34;2095588;28;20527;-82
2023/01/23 03:10:24;;;;;;;19.27;12.57;;;;;;;-3.56;100.00;93807.91;2101982;28;20016;-83
2023/01/23 03:11:26;;;;;;;18.90;12.38;;;;;;;-3.48;100.00;93810.81;2095408;28;20020;-83
2023/01/23 03:12:27;;;;;;;19.23;11.88;;;;;;;-3.58;100.00;93810.03;2087612;28;20033;-84
2023/01/23 03:13:28;;;;;;;19.10;12.75;;;;;;;-3.57;100.00;93803.75;2111292;27;20023;-83
2023/01/23 03:14:31;;;;;;;19.33;12.88;;;;;;;-3.50;100.00;93802.53;2110201;28;20558;-82
2023/01/23 03:15:44;;;;;;;17.75;12.27;;;;;;;-3.60;100.00;93800.97;2103697;28;20530;-83
2023/01/23 03:16:49;;;;;;;16.88;11.77;;;;;;;-3.57;100.00;93806.34;2114039;28;20054;-84
2023/01/23 03:17:50;;;;;;;16.73;11.88;;;;;;;-3.66;100.00;93802.97;2103828;28;20025;-84
2023/01/23 03:18:51;;;;;;;19.73;12.57;;;;;;;-3.64;100.00;93807.91;2102380;28;21035;-83
2023/01/23 03:19:53;;;;;;;17.48;12.23;;;;;;;-3.53;100.00;93803.13;2102963;28;20502;-84
2023/01/23 03:20:54;;;;;;;19.60;12.48;;;;;;;-3.52;100.00;93800.19;2095486;28;20028;-83
2023/01/23 03:21:55;;;;;;;18.58;12.23;;;;;;;-3.44;100.00;93801.25;2097810;28;20020;-83
2023/01/23 03:22:56;;;;;;;19.38;12.15;;;;;;;-3.40;100.00;93804.78;2104094;28;20020;-83
2023/01/23 03:23:57;;;;;;;19.33;12.80;;;;;;;-3.40;100.00;93799.56;2104063;28;20048;-83
2023/01/23 03:24:58;;;;;;;17.75;11.35;;;;;;;-3.41;100.00;93800.66;2112585;27;20893;-82
2023/01/23 03:25:59;;;;;;;18.13;11.93;;;;;;;-3.36;100.00;93801.25;2112314;28;20879;-83
2023/01/23 03:27:00;;;;;;;17.70;11.77;;;;;;;-3.49;100.00;93811.88;2095941;28;20021;-83
2023/01/23 03:28:02;;;;;;;17.95;11.90;;;;;;;-3.56;100.00;93807.13;2101773;28;20023;-84
2023/01/23 03:30:24;;;;;;;18.35;11.65;;;;;;;-3.45;100.00;93812.81;2096196;28;20096;-82
2023/01/23 03:31:25;;;;;;;18.10;12.27;;;;;;;-3.56;100.00;93807.91;2090319;28;20025;-82
2023/01/23 03:32:32;;;;;;;20.90;13.18;;;;;;;-3.55;100.00;93812.06;2081707;28;20021;-81
2023/01/23 03:33:42;;;;;;;19.77;12.15;;;;;;;-3.46;100.00;93806.06;2091740;28;20039;-82
2023/01/23 03:34:47;;;;;;;17.50;11.70;;;;;;;-3.48;100.00;93802.97;2094901;28;20704;-82
2023/01/23 03:35:49;;;;;;;20.40;13.02;;;;;;;-3.55;100.00;93803.44;2099305;28;20111;-82
2023/01/23 03:36:50;;;;;;;21.30;12.30;;;;;;;-3.13;100.00;93798.41;2090286;28;20031;-82
2023/01/23 03:37:51;;;;;;;17.30;11.98;;;;;;;-3.32;100.00;93804.00;2093072;28;20029;-82
2023/01/23 03:41:40;;;;;;;17.40;10.90;;;;;;;-3.42;100.00;93799.13;2094995;28;20036;-83
2023/01/23 03:42:41;;;;;;;18.67;11.00;;;;;;;-3.37;100.00;93801.56;2095359;28;20466;-81
2023/01/23 03:43:42;;;;;;;20.05;11.88;;;;;;;-3.41;100.00;93806.66;2098289;28;20017;-82
2023/01/23 03:44:43;;;;;;;19.65;12.13;;;;;;;-3.42;100.00;93788.69;2099708;28;20020;-83
2023/01/23 03:45:44;;;;;;;17.83;11.93;;;;;;;-3.47;100.00;93786.97;2098381;28;20085;-82
2023/01/23 03:46:47;;;;;;;19.27;12.07;;;;;;;-3.49;100.00;93790.97;2107135;28;20062;-81
2023/01/23 03:47:48;;;;;;;23.00;11.88;;;;;;;-3.26;100.00;93784.47;2097233;28;20413;-82
2023/01/23 03:48:49;;;;;;;18.60;12.43;;;;;;;-3.32;100.00;93790.94;2081522;28;20029;-81
2023/01/23 03:49:50;;;;;;;17.77;11.88;;;;;;;-3.43;100.00;93782.66;2094882;28;20083;-79
2023/01/23 03:50:51;;;;;;;20.10;12.95;;;;;;;-3.45;100.00;93781.44;2090779;28;20025;-81
2023/01/23 03:51:52;;;;;;;19.73;12.60;;;;;;;-3.56;100.00;93781.00;2104271;28;20019;-78
2023/01/23 03:52:53;;;;;;;19.15;12.15;;;;;;;-3.60;100.00;93778.25;2107488;28;20059;-79
2023/01/23 03:53:54;;;;;;;17.27;12.35;;;;;;;-3.39;100.00;93777.56;2098833;28;20036;-78
2023/01/23 03:54:55;;;;;;;16.70;12.05;;;;;;;-3.36;100.00;93779.56;2102980;28;20054;-83
2023/01/23 03:55:56;;;;;;;18.80;12.10;;;;;;;-3.45;100.00;93787.44;2083928;28;20060;-80
2023/01/23 03:56:57;;;;;;;19.67;12.13;;;;;;;-3.35;100.00;93794.19;2099224;28;20390;-83
2023/01/23 03:57:58;;;;;;;18.08;12.10;;;;;;;-3.41;100.00;93787.59;2098829;28;20062;-81
2023/01/23 03:58:59;;;;;;;19.23;12.27;;;;;;;-3.46;100.00;93795.59;2083364;28;20115;-82
2023/01/23 04:00:00;;;;;;;17.48;12.05;;;;;;;-3.43;100.00;93802.78;2101954;28;20056;-81
2023/01/23 04:01:08;;;;;;;21.13;13.15;;;;;;;-3.50;100.00;93792.84;2092747;28;20560;-81
2023/01/23 04:02:09;;;;;;;19.08;11.60;;;;;;;-3.49;100.00;93798.81;2094993;28;20602;-80
2023/01/23 04:03:10;;;;;;;18.55;11.75;;;;;;;-3.52;100.00;93799.44;2089817;28;20042;-80
2023/01/23 04:04:11;;;;;;;19.55;12.30;;;;;;;-3.27;100.00;93792.63;2103309;28;20029;-82
2023/01/23 04:05:12;;;;;;;20.10;12.52;;;;;;;-3.38;100.00;93794.78;2095914;28;20016;-82
2023/01/23 04:06:13;;;;;;;19.48;12.38;;;;;;;-3.46;100.00;93800.81;2084097;28;20017;-80
2023/01/23 04:07:14;;;;;;;17.55;11.98;;;;;;;-3.35;100.00;93797.56;2090370;28;20699;-83
2023/01/23 04:08:15;;;;;;;19.33;12.20;;;;;;;-3.49;100.00;93796.22;2098816;28;20020;-81
2023/01/23 04:09:16;;;;;;;17.65;11.85;;;;;;;-3.34;100.00;93803.53;2088937;28;20047;-81
2023/01/23 04:10:17;;;;;;;17.58;12.15;;;;;;;-3.36;100.00;93803.09;2090079;28;20048;-81
2023/01/23 04:11:18;;;;;;;18.50;11.88;;;;;;;-3.35;100.00;93804.63;2098125;28;20043;-82
2023/01/23 04:12:19;;;;;;;19.58;12.15;;;;;;;-3.46;100.00;93806.81;2095031;28;20406;-81
2023/01/23 04:13:20;;;;;;;18.00;11.55;;;;;;;-3.50;100.00;93805.91;2095715;28;20040;-81
2023/01/23 04:14:22;;;;;;;19.00;12.07;;;;;;;-3.49;100.00;93807.44;2100843;28;20028;-82
2023/01/23 04:15:23;;;;;;;17.52;11.43;;;;;;;-3.41;100.00;93813.72;2092546;28;20502;-83
2023/01/23 04:16:26;;;;;;;17.42;11.02;;;;;;;-3.32;100.00;93817.09;2093414;28;20016;-81
2023/01/23 04:17:27;;;;;;;19.77;12.07;;;;;;;-3.35;100.00;93822.94;2093445;28;20074;-82
2023/01/23 04:18:28;;;;;;;18.02;12.00;;;;;;;-3.52;100.00;93817.72;2093172;28;20382;-82
2023/01/23 04:19:29;;;;;;;18.85;11.88;;;;;;;-3.49;100.00;93811.88;2087568;28;20017;-82
2023/01/23 04:20:30;;;;;;;17.23;11.70;;;;;;;-3.33;100.00;93810.31;2090141;28;20487;-82
2023/01/23 04:21:31;;;;;;;18.98;11.70;;;;;;;-3.39;100.00;93812.31;2106161;28;20023;-82
2023/01/23 04:22:32;;;;;;;17.83;12.23;;;;;;;-3.41;100.00;93811.88;2095687;28;20028;-81
2023/01/23 04:23:33;;;;;;;21.20;12.98;;;;;;;-3.41;100.00;93809.25;2094867;28;20148;-81
2023/01/23 04:24:34;;;;;;;19.35;12.63;;;;;;;-3.48;100.00;93814.19;2073305;28;20060;-81
2023/01/23 04:25:35;;;;;;;18.98;13.00;;;;;;;-3.52;100.00;93815.09;2089948;28;20562;-82
2023/01/23 04:26:36;;;;;;;19.73;13.00;;;;;;;-3.57;100.00;93816.81;2098453;28;20048;-80
2023/01/23 04:27:37;;;;;;;18.60;12.20;;;;;;;-3.47;100.00;93826.16;2095377;28;20032;-83
2023/01/23 04:28:38;;;;;;;16.38;11.57;;;;;;;-3.32;100.00;93817.09;2096666;28;20044;-81
2023/01/23 04:29:39;;;;;;;17.83;12.68;;;;;;;-3.38;100.00;93821.72;2089650;28;20452;-81
2023/01/23 04:30:41;;;;;;;18.02;12.10;;;;;;;-3.42;100.00;93815.56;2085323;28;20049;-82
2023/01/23 04:31:51;;;;;;;17.95;12.35;;;;;;;-3.42;100.00;93820.03;2097874;28;20024;-80
2023/01/23 04:32:52;;;;;;;19.10;12.05;;;;;;;-3.25;100.00;93816.59;2104020;28;20024;-81
2023/01/23 04:33:53;;;;;;;16.63;11.32;;;;;;;-3.34;100.00;93817.38;2097748;28;20339;-80
2023/01/23 04:34:54;;;;;;;16.50;11.50;;;;;;;-3.42;100.00;93815.56;2094372;28;20028;-79
2023/01/23 04:35:58;;;;;;;16.17;11.07;;;;;;;-3.23;100.00;93811.84;2106300;28;20032;-81
2023/01/23 04:36:59;;;;;;;16.02;11.48;;;;;;;-3.33;100.00;93820.78;2097930;28;20028;-80
2023/01/23 04:38:00;;;;;;;16.92;11.23;;;;;;;-3.43;100.00;93815.84;2084316;28;20013;-82
2023/01/23 04:39:03;;;;;;;17.13;11.85;;;;;;;-3.52;100.00;93820.34;2095676;28;20062;-82
2023/01/23 04:40:04;;;;;;;16.67;10.57;;;;;;;-3.31;100.00;93818.63;2098095;28;20090;-82
2023/01/23 04:41:05;;;;;;;17.67;11.88;;;;;;;-3.33;100.00;93831.25;2088768;28;20021;-83
2023/01/23 04:42:06;;;;;;;16.95;11.70;;;;;;;-3.40;100.00;93830.94;2089379;28;20045;-82
2023/01/23 04:43:08;;;;;;;17.48;11.70;;;;;;;-3.52;100.00;93825.56;2089470;28;20060;-82
2023/01/23 04:44:21;;;;;;;16.83;11.77;;;;;;;-3.40;100.00;93817.88;2092875;28;20383;-81
2023/01/23 04:45:22;;;;;;;18.90;10.88;;;;;;;-3.50;100.00;93812.97;2097842;28;20034;-82
2023/01/23 04:46:23;;;;;;;20.10;11.95;;;;;;;-3.26;100.00;93820.28;2087417;28;20134;-82
2023/01/23 04:47:24;;;;;;;17.60;10.68;;;;;;;-3.27;100.00;93816.16;2085296;28;20024;-84
2023/01/23 04:48:26;;;;;;;16.35;10.77;;;;;;;-3.41;100.00;93819.72;2095388;28;20013;-80
2023/01/23 04:49:27;;;;;;;17.10;11.15;;;;;;;-3.50;100.00;93818.97;2096085;28;20032;-80
2023/01/23 04:50:27;;;;;;;19.52;11.98;;;;;;;-3.52;100.00;93821.09;2097618;28;20111;-82
2023/01/23 04:51:28;;;;;;;17.27;11.40;;;;;;;-3.56;100.00;93812.34;2104766;28;20085;-82
2023/01/23 04:52:30;;;;;;;17.95;11.32;;;;;;;-3.56;100.00;93814.94;2097599;28;20042;-82
2023/01/23 04:53:31;;;;;;;18.13;11.43;;;;;;;-3.70;100.00;93815.13;2089569;28;20378;-81
2023/01/23 04:54:32;;;;;;;17.75;11.05;;;;;;;-3.61;100.00;93818.50;2090599;28;20079;-82
2023/01/23 04:55:33;;;;;;;16.23;10.20;;;;;;;-3.53;100.00;93819.56;2113868;28;20042;-82
2023/01/23 04:56:34;;;;;;;16.60;10.63;;;;;;;-3.58;100.00;93811.91;2105979;28;20060;-81
2023/01/23 04:57:35;;;;;;;16.00;10.65;;;;;;;-3.58;100.00;93812.66;2097538;28;20013;-83
2023/01/23 04:58:36;;;;;;;14.63;9.98;;;;;;;-3.59;100.00;93811.13;2097860;28;20119;-80
2023/01/23 04:59:37;;;;;;;16.33;10.68;;;;;;;-3.66;100.00;93821.28;2097687;28;20025;-82
2023/01/23 05:00:38;;;;;;;17.80;10.55;;;;;;;-3.65;100.00;93819.41;2107971;28;20041;-82
2023/01/23 05:01:39;;;;;;;55.45;24.85;;;;;;;-3.67;100.00;93821.59;2097583;28;20074;-79
2023/01/23 05:02:40;;;;;;;68.00;27.92;;;;;;;-3.44;100.00;93814.34;2097770;28;20032;-80